This site, now in its 15th season, is a labour of love and fun from one of Ottawa's most avid time trialists and number crunchers. It adheres to and is permitted by the laws of Canada, promotes the objectives of every bicycle club whose results are shown, and is donated free of charge by myself for your enjoyment and usage. If you would like results from series you ride in to be shown here, give me (celia@drmath.ca) a shout!


Index Page
ATT OTT WTT AATT CFCTT VVVTT
Help resultformat:
Case-sensitive

OBC Open TT Series - 2019-Jun-20 - 15km (Rockliffe Pkwy) (EvtFactor = 0.9738)

Ottawa Weather (18:00): Mostly Cloudy. Temp.erature: 18.3C, Wind: NNE 17km/h), Relative humidity: 84%, Dew point: 16C, Pressure: 100.3kPa, Visibility: 24km.
Ottawa Weather (19:00): Mostly Cloudy. Temp.erature: 18.1C, Wind: NNE 13km/h), Relative humidity: 86%, Dew point: 16C, Pressure: 100.3kPa, Visibility: 24km.
Ottawa Weather (20:00): Mostly Cloudy. Temp.erature: 18.2C, Wind: N 10km/h), Relative humidity: 82%, Dew point: 15C, Pressure: 100.3kPa, Visibility: 24km.

Send photos with description (when/where/what) of yourself on or off of bike to celia@drmath.ca

 
 

BESTS?
 
Y 1 Fillion, Aaron  OBC 18:38 48.301 1/37 VBM 1/9  
2 Lamoureux, Jay TVC 18:51 47.745 2/37 SEM 1/3  
Y 3 Canuel, Karol-Ann BD 20:02 44.925 3/37 VAF 1/1  
4 Diaz, Rodrigo  OBC/EUR 20:11 44.591 4/37 VBM 2/9 1.0350
5 Brodeur, Martin OBC 20:22 44.190 5/37 VBM 3/9 0.9830
Y 6 Katz, Joel  OBC/RWR 20:28 43.974 6/37 VDM 1/6 1.0073
7 Moon, Clay RWR 20:40 43.548 7/37 SEM 2/3  
8 Gelinas, Brandon OCA 21:08 42.587 8/37 SEM 3/3 1.3345
9 Burge, Craig  CYC 21:19 42.220 9/37 VCM 1/4 1.0573
Y 10 Girard, Nicolas CDO 21:32 41.796 10/37 CAM 1/2  
11 Lagueux, Frederic RPO 21:40 41.538 11/37 VBM 4/9 0.9412
12 Mullington, Chris WQW 21:41 41.507 12/37 VDM 2/6 1.0684
13 Till, Michael WQW 22:00 40.909 13/37 VCM 2/4 1.0579
14 Boisvenue, Linda OBC 22:08 40.663 14/37 VBF 1/1 1.0205
15 Morris, Steve OBC 22:09 40.632 15/37 VCM 3/4 1.1967
16 Posthuma, Hans  OBC 22:22 40.238 16/37 VDM 3/6 1.0453
Y 17 Milette, Laury OBC 22:24 40.179 17/37 JUF 1/1 1.0180
18 Almeralla, Sergio WQW 22:27 40.089 18/37 VBM 5/9  
19 Cheff, Emmanuel CDO 22:28 40.059 19/37 CAM 2/2  
20 Fournier, James OBC 22:41 39.677 20/37 VBM 6/9 1.1214
21 Somogyi, Michel OBC 23:00 39.130 21/37 VBM 7/9 1.1648
22 Arsenault, Ariane OBC 23:08 38.905 22/37 CAF 1/1 1.0662
23 Stevenson, Timothy OBC 23:11 38.821 23/37 VBM 8/9 1.0820
24 Morvan, Jacques  OBC 23:25 38.434 24/37 VEM 1/3 1.1406
25 Rivoche, Michael WQW 23:29 38.325 25/37 VDM 4/6 1.1897
26 Clarke, Shawn SRC/CYC 24:14 37.139 26/37 VAM 1/1 1.0696
27 Dorego, Jean-Louis OBC 24:16 37.088 27/37 VDM 5/6 1.0333
28 Deschamps, Martin WQW 24:40 36.486 28/37 VBM 9/9 1.1420
29 Dumas, Marcel OBC 25:09 35.785 29/37 VCM 4/4 1.0942
30 Moerman, Bram  OBC 25:26 35.387 30/37 VEM 2/3 1.2075
31 Shand, Peter OBC 25:41 35.042 31/37 VDM 6/6 1.1256
32 Burdett, Avery  OBC 26:00 34.615 32/37 VFM 1/1 0.9434
33 Imbrogno, Giorgio  OBC 26:13 34.329 33/37 VEM 3/3 1.0444
34 Levi, Cheryl OBC 26:28 34.005 34/37 VCF 1/1  
Y 35 McInnis, Celia  OBC 27:06 33.210 35/37 VDF 1/2 1.0449
36 Drapeau, Blanche OBC 27:37 32.589 36/37 VDF 2/2 1.0219
37 Dumas, Nathan OBC 28:37 31.450 37/37 JUM 1/1 0.9757
 
Average Speed of all of the above 37 finishes (555km in 14:12:51):39.046
>>>Average of the Average Speeds for these 37 finishes39.462<<<
 

The number of data records shown above is 37
The server processing of your query took: 0 wallclock secs ( 0.09 usr + 0.00 sys = 0.09 CPU)

Thanks to our Helpers: Michel Bernier, Mark Manners, Alex McKnight, Jess Raymond, Peter Tregunno

     


Apr 19 (Good Friday)
May 2 May 7 (10km) May 9 May 14 (10km) May 16 May 21 (10km) May 23 May 28 May 28 (10km) May 30
Jun 2 (40km) Jun 4 Jun 4 Jun 6 Jun 11 Jun 11 Jun 13 Jun 18 Jun 18
  Jun 20  
Jun 25 Jun 25 Jun 27 Jun 30 (40km)
Jul 2 Jul 2 Jul 4 Jul 9 Jul 9 Jul 11 (cancelled - lightning) Jul 16 Jul 16 Jul 18

OTT Rankings
Best       Best by category
WTT Rankings for All Participants
5 Best Speeds (≥3 15km, ≤1 10km)     5 Best Speeds (≥3 15km, ≤1 10km) by category
OTT Best Three 15km Rankings
Overall     by category     age-Hcap Female   age-Hcap Male
Other years
TT Calculator All TT People All TT events
ABC Home VVV Home
CKAP GOLD MEDAL
Other Links

Note: OTT data from 2003 through 2006-Apr-14 and 2007-Apr-06-? and WTT from 2008-? is taken from the official OBC site.

Please send your comments and suggestions to: Celia McInnis
Copyright © 1998-2011 Celia McInnis. All rights reserved. Links are welcomed.